JBU771 KBOS-MMUN
Flight info
| Callsign | JBU771 |
|---|---|
| Flight time | N/A |
| Altitude | 32000 |
| Route | SSOXS7 SSOXS Q167 RIFLE DCT HEADI Q97 KALDA Q131 WAALT Y289 BAHAA DCT SAXXN Y262 LULLS Y196 CANOA UB879 NOSAT NOSAT1B |
| Aircraft | A321/M-SDE3FGHIRWY/LB1 |
Departure
| Time | 2026-05-05 16:40 |
|---|---|
| Airport | Boston Logan International Airport (KBOS) |
Arrival
| Time | N/A |
|---|---|
| Airport | Cancún International Airport (MMUN) |
| Time | Latitude | Longitude | Altitude | Speed | Heading |
|---|---|---|---|---|---|
| 2026-05-05 15:46 | 42.36799 | -71.01411 | 30 ft | 0 kts | 259° |
| 2026-05-05 16:25 | 42.36800 | -71.01403 | 30 ft | 4 kts | 259° |
| 2026-05-05 16:25 | 42.36804 | -71.01372 | 29 ft | 2 kts | 259° |
| 2026-05-05 16:26 | 42.36828 | -71.01328 | 30 ft | 4 kts | 160° |
| 2026-05-05 16:26 | 42.36856 | -71.01358 | 28 ft | 0 kts | 135° |
| 2026-05-05 16:31 | 42.36855 | -71.01357 | 28 ft | 0 kts | 135° |
| 2026-05-05 16:31 | 42.36851 | -71.01352 | 27 ft | 1 kts | 135° |
| 2026-05-05 16:31 | 42.36842 | -71.01340 | 27 ft | 2 kts | 135° |
| 2026-05-05 16:32 | 42.36834 | -71.01319 | 31 ft | 3 kts | 107° |
| 2026-05-05 16:32 | 42.36837 | -71.01292 | 29 ft | 3 kts | 72° |
| 2026-05-05 16:32 | 42.36852 | -71.01265 | 27 ft | 4 kts | 46° |
| 2026-05-05 16:32 | 42.36875 | -71.01236 | 30 ft | 5 kts | 42° |
| 2026-05-05 16:33 | 42.36905 | -71.01202 | 28 ft | 6 kts | 39° |
| 2026-05-05 16:33 | 42.36940 | -71.01163 | 28 ft | 7 kts | 41° |
| 2026-05-05 16:33 | 42.36979 | -71.01119 | 29 ft | 8 kts | 35° |
| 2026-05-05 16:33 | 42.37029 | -71.01084 | 28 ft | 9 kts | 26° |
| 2026-05-05 16:34 | 42.37086 | -71.01047 | 27 ft | 9 kts | 26° |
| 2026-05-05 16:34 | 42.37147 | -71.01006 | 26 ft | 10 kts | 26° |
| 2026-05-05 16:34 | 42.37213 | -71.00963 | 26 ft | 11 kts | 25° |
| 2026-05-05 16:34 | 42.37283 | -71.00918 | 30 ft | 11 kts | 25° |
| 2026-05-05 16:35 | 42.37360 | -71.00879 | 28 ft | 12 kts | 19° |
| 2026-05-05 16:35 | 42.37441 | -71.00840 | 27 ft | 13 kts | 19° |
| 2026-05-05 16:35 | 42.37525 | -71.00799 | 28 ft | 13 kts | 19° |
| 2026-05-05 16:35 | 42.37612 | -71.00757 | 25 ft | 14 kts | 20° |
| 2026-05-05 16:36 | 42.37703 | -71.00712 | 29 ft | 14 kts | 19° |
| 2026-05-05 16:36 | 42.37787 | -71.00672 | 28 ft | 9 kts | 19° |
| 2026-05-05 16:36 | 42.37835 | -71.00619 | 28 ft | 9 kts | 71° |
| 2026-05-05 16:36 | 42.37822 | -71.00534 | 25 ft | 10 kts | 109° |
| 2026-05-05 16:37 | 42.37799 | -71.00447 | 28 ft | 10 kts | 109° |
| 2026-05-05 16:37 | 42.37774 | -71.00354 | 28 ft | 11 kts | 110° |
| 2026-05-05 16:37 | 42.37748 | -71.00256 | 25 ft | 11 kts | 110° |
| 2026-05-05 16:37 | 42.37721 | -71.00153 | 27 ft | 12 kts | 110° |
| 2026-05-05 16:38 | 42.37692 | -71.00047 | 27 ft | 8 kts | 110° |
| 2026-05-05 16:38 | 42.37674 | -70.99978 | 26 ft | 6 kts | 110° |
| 2026-05-05 16:38 | 42.37653 | -70.99951 | 27 ft | 4 kts | 168° |
| 2026-05-05 16:38 | 42.37627 | -70.99962 | 27 ft | 4 kts | 201° |
| 2026-05-05 16:39 | 42.37599 | -70.99977 | 28 ft | 5 kts | 201° |
| 2026-05-05 16:39 | 42.37469 | -71.00043 | 26 ft | 50 kts | 200° |
| 2026-05-05 16:39 | 42.36934 | -71.00301 | 27 ft | 112 kts | 199° |
| 2026-05-05 16:39 | 42.36038 | -71.00734 | 49 ft | 157 kts | 200° |
| 2026-05-05 16:40 | 42.35016 | -71.01254 | 650 ft | 157 kts | 201° |
| 2026-05-05 16:40 | 42.33937 | -71.01495 | 1323 ft | 165 kts | 173° |
| 2026-05-05 16:40 | 42.32935 | -71.00653 | 1942 ft | 182 kts | 136° |
| 2026-05-05 16:40 | 42.32227 | -70.99204 | 2478 ft | 185 kts | 131° |
| 2026-05-05 16:41 | 42.31560 | -70.97705 | 2953 ft | 190 kts | 122° |
| 2026-05-05 16:41 | 42.31221 | -70.95953 | 3352 ft | 205 kts | 100° |
| 2026-05-05 16:41 | 42.31372 | -70.93920 | 3504 ft | 229 kts | 82° |
| 2026-05-05 16:41 | 42.31698 | -70.91722 | 3631 ft | 249 kts | 81° |
| 2026-05-05 16:42 | 42.32042 | -70.89338 | 3749 ft | 270 kts | 81° |
| 2026-05-05 16:42 | 42.32414 | -70.86733 | 3965 ft | 292 kts | 82° |
| 2026-05-05 16:42 | 42.32802 | -70.83999 | 4538 ft | 299 kts | 82° |
| 2026-05-05 16:42 | 42.32957 | -70.81197 | 5213 ft | 299 kts | 96° |
| 2026-05-05 16:43 | 42.32645 | -70.78430 | 5837 ft | 298 kts | 110° |
| 2026-05-05 16:43 | 42.31893 | -70.75824 | 6428 ft | 299 kts | 121° |
| 2026-05-05 16:43 | 42.31003 | -70.73258 | 7042 ft | 304 kts | 120° |
| 2026-05-05 16:43 | 42.29970 | -70.70782 | 7658 ft | 301 kts | 133° |
| 2026-05-05 16:44 | 42.28540 | -70.68748 | 8294 ft | 296 kts | 148° |
| 2026-05-05 16:44 | 42.26822 | -70.67285 | 8922 ft | 290 kts | 163° |
| 2026-05-05 16:44 | 42.24945 | -70.66357 | 9575 ft | 288 kts | 169° |
| 2026-05-05 16:44 | 42.23033 | -70.65496 | 10164 ft | 292 kts | 169° |
| 2026-05-05 16:45 | 42.21042 | -70.64600 | 10353 ft | 312 kts | 168° |
| 2026-05-05 16:45 | 42.18914 | -70.63643 | 10484 ft | 332 kts | 168° |
| 2026-05-05 16:45 | 42.16641 | -70.62737 | 10608 ft | 348 kts | 174° |
| 2026-05-05 16:45 | 42.14208 | -70.62331 | 10782 ft | 356 kts | 184° |
| 2026-05-05 16:46 | 42.11732 | -70.62541 | 11260 ft | 356 kts | 194° |
| 2026-05-05 16:46 | 42.09367 | -70.63331 | 11804 ft | 355 kts | 203° |
| 2026-05-05 16:46 | 42.07012 | -70.64377 | 12379 ft | 358 kts | 203° |
| 2026-05-05 16:46 | 42.04630 | -70.65432 | 12951 ft | 362 kts | 202° |
| 2026-05-05 16:47 | 42.02226 | -70.66490 | 13527 ft | 366 kts | 202° |
| 2026-05-05 16:47 | 41.99794 | -70.67558 | 14051 ft | 369 kts | 202° |
| 2026-05-05 16:47 | 41.97337 | -70.68633 | 14601 ft | 373 kts | 202° |
| 2026-05-05 16:47 | 41.94859 | -70.69721 | 15130 ft | 376 kts | 202° |
| 2026-05-05 16:48 | 41.92353 | -70.70824 | 15658 ft | 380 kts | 202° |
| 2026-05-05 16:48 | 41.89832 | -70.71934 | 16196 ft | 383 kts | 202° |
| 2026-05-05 16:48 | 41.87284 | -70.73051 | 16712 ft | 386 kts | 202° |
| 2026-05-05 16:48 | 41.84713 | -70.74183 | 17232 ft | 389 kts | 204° |
| 2026-05-05 16:49 | 41.82248 | -70.75672 | 17736 ft | 389 kts | 213° |
| 2026-05-05 16:49 | 41.79882 | -70.77453 | 18241 ft | 392 kts | 213° |
| 2026-05-05 16:49 | 41.77497 | -70.79253 | 18672 ft | 395 kts | 213° |
| 2026-05-05 16:49 | 41.75095 | -70.81065 | 19127 ft | 397 kts | 213° |
| 2026-05-05 16:50 | 41.72676 | -70.82886 | 19575 ft | 400 kts | 213° |
| 2026-05-05 16:50 | 41.70247 | -70.84712 | 20020 ft | 402 kts | 213° |
| 2026-05-05 16:50 | 41.67800 | -70.86549 | 20446 ft | 404 kts | 213° |
| 2026-05-05 16:50 | 41.65371 | -70.88369 | 20876 ft | 407 kts | 213° |
| 2026-05-05 16:51 | 41.62862 | -70.90247 | 21305 ft | 409 kts | 213° |
| 2026-05-05 16:51 | 41.60405 | -70.92084 | 21726 ft | 411 kts | 213° |
| 2026-05-05 16:51 | 41.57902 | -70.93965 | 22132 ft | 413 kts | 214° |
| 2026-05-05 16:51 | 41.55566 | -70.96175 | 22518 ft | 411 kts | 224° |
| 2026-05-05 16:52 | 41.53539 | -70.98854 | 22904 ft | 410 kts | 232° |
| 2026-05-05 16:52 | 41.51854 | -71.01917 | 23298 ft | 410 kts | 239° |
| 2026-05-05 16:52 | 41.50272 | -71.05095 | 23659 ft | 412 kts | 239° |
| 2026-05-05 16:52 | 41.48677 | -71.08286 | 23980 ft | 414 kts | 239° |
| 2026-05-05 16:53 | 41.47071 | -71.11490 | 24306 ft | 417 kts | 238° |
| 2026-05-05 16:53 | 41.45449 | -71.14712 | 24617 ft | 419 kts | 238° |
| 2026-05-05 16:53 | 41.43822 | -71.17940 | 24928 ft | 421 kts | 239° |
| 2026-05-05 16:53 | 41.42189 | -71.21182 | 25238 ft | 423 kts | 239° |
| 2026-05-05 16:54 | 41.40544 | -71.24450 | 25524 ft | 425 kts | 239° |
| 2026-05-05 16:54 | 41.38894 | -71.27729 | 25816 ft | 427 kts | 239° |
| 2026-05-05 16:54 | 41.37256 | -71.30982 | 26112 ft | 429 kts | 239° |
| 2026-05-05 16:54 | 41.35568 | -71.34331 | 26409 ft | 431 kts | 239° |
| 2026-05-05 16:55 | 41.33914 | -71.37611 | 26724 ft | 433 kts | 239° |
| 2026-05-05 16:55 | 41.32230 | -71.40948 | 27034 ft | 436 kts | 239° |
| 2026-05-05 16:55 | 41.30537 | -71.44300 | 27335 ft | 437 kts | 239° |
| 2026-05-05 16:55 | 41.28839 | -71.47655 | 27750 ft | 436 kts | 239° |
| 2026-05-05 16:56 | 41.27142 | -71.51000 | 28177 ft | 435 kts | 239° |
| 2026-05-05 16:56 | 41.25452 | -71.54328 | 28603 ft | 435 kts | 239° |
| 2026-05-05 16:56 | 41.23762 | -71.57653 | 29001 ft | 434 kts | 239° |
| 2026-05-05 16:56 | 41.22065 | -71.60982 | 29400 ft | 433 kts | 239° |